sensor_id;sensor_type;location;lat;lon;timestamp;P1;durP1;ratioP1;P2;durP2;ratioP2
16524;SDS011;8375;33.594;-117.718;2022-07-23T00:00:50;10.15;;;4.38;;
16524;SDS011;8375;33.594;-117.718;2022-07-23T00:03:18;7.47;;;4.35;;
16524;SDS011;8375;33.594;-117.718;2022-07-23T00:05:47;10.15;;;4.63;;
16524;SDS011;8375;33.594;-117.718;2022-07-23T00:08:17;9.80;;;4.30;;
16524;SDS011;8375;33.594;-117.718;2022-07-23T00:10:46;10.63;;;4.95;;
16524;SDS011;8375;33.594;-117.718;2022-07-23T00:13:14;7.10;;;4.57;;
16524;SDS011;8375;33.594;-117.718;2022-07-23T00:15:43;7.47;;;4.38;;
16524;SDS011;8375;33.594;-117.718;2022-07-23T00:18:12;8.23;;;4.40;;
16524;SDS011;8375;33.594;-117.718;2022-07-23T00:20:41;8.63;;;4.80;;
16524;SDS011;8375;33.594;-117.718;2022-07-23T00:23:09;8.52;;;4.53;;
16524;SDS011;8375;33.594;-117.718;2022-07-23T00:25:40;10.50;;;5.40;;
16524;SDS011;8375;33.594;-117.718;2022-07-23T00:28:09;8.25;;;5.47;;
16524;SDS011;8375;33.594;-117.718;2022-07-23T00:30:37;8.52;;;4.75;;
16524;SDS011;8375;33.594;-117.718;2022-07-23T00:33:07;12.25;;;5.13;;
16524;SDS011;8375;33.594;-117.718;2022-07-23T00:35:37;12.43;;;5.50;;
16524;SDS011;8375;33.594;-117.718;2022-07-23T00:38:07;8.93;;;4.72;;
16524;SDS011;8375;33.594;-117.718;2022-07-23T00:40:37;11.90;;;5.00;;
16524;SDS011;8375;33.594;-117.718;2022-07-23T00:43:08;8.90;;;4.60;;
16524;SDS011;8375;33.594;-117.718;2022-07-23T00:45:37;7.35;;;4.60;;
16524;SDS011;8375;33.594;-117.718;2022-07-23T00:48:06;11.52;;;5.30;;
16524;SDS011;8375;33.594;-117.718;2022-07-23T00:50:43;7.63;;;4.85;;
16524;SDS011;8375;33.594;-117.718;2022-07-23T00:53:13;8.52;;;5.05;;
16524;SDS011;8375;33.594;-117.718;2022-07-23T00:55:42;10.60;;;5.65;;
16524;SDS011;8375;33.594;-117.718;2022-07-23T00:58:12;11.80;;;5.63;;
16524;SDS011;8375;33.594;-117.718;2022-07-23T01:00:41;11.05;;;5.15;;
16524;SDS011;8375;33.594;-117.718;2022-07-23T01:03:10;11.38;;;5.22;;
16524;SDS011;8375;33.594;-117.718;2022-07-23T01:05:39;10.07;;;5.18;;
16524;SDS011;8375;33.594;-117.718;2022-07-23T01:08:08;10.77;;;5.10;;
16524;SDS011;8375;33.594;-117.718;2022-07-23T01:10:37;10.20;;;4.88;;
16524;SDS011;8375;33.594;-117.718;2022-07-23T01:13:07;10.90;;;5.15;;
16524;SDS011;8375;33.594;-117.718;2022-07-23T01:15:39;13.27;;;6.13;;
16524;SDS011;8375;33.594;-117.718;2022-07-23T01:18:08;8.50;;;5.32;;
16524;SDS011;8375;33.594;-117.718;2022-07-23T01:20:38;10.68;;;5.20;;
16524;SDS011;8375;33.594;-117.718;2022-07-23T01:23:11;10.93;;;5.85;;
16524;SDS011;8375;33.594;-117.718;2022-07-23T01:25:47;12.00;;;5.53;;
16524;SDS011;8375;33.594;-117.718;2022-07-23T01:28:16;12.73;;;5.53;;
16524;SDS011;8375;33.594;-117.718;2022-07-23T01:30:44;9.57;;;5.57;;
16524;SDS011;8375;33.594;-117.718;2022-07-23T01:33:14;10.15;;;4.90;;
16524;SDS011;8375;33.594;-117.718;2022-07-23T01:35:43;11.77;;;6.40;;
16524;SDS011;8375;33.594;-117.718;2022-07-23T01:38:13;10.60;;;5.70;;
16524;SDS011;8375;33.594;-117.718;2022-07-23T01:40:42;12.13;;;5.53;;
16524;SDS011;8375;33.594;-117.718;2022-07-23T01:43:10;8.80;;;5.30;;
16524;SDS011;8375;33.594;-117.718;2022-07-23T01:45:39;9.10;;;5.30;;
16524;SDS011;8375;33.594;-117.718;2022-07-23T01:48:10;13.60;;;5.87;;
16524;SDS011;8375;33.594;-117.718;2022-07-23T01:50:38;10.63;;;5.47;;
16524;SDS011;8375;33.594;-117.718;2022-07-23T01:53:07;11.43;;;5.87;;
16524;SDS011;8375;33.594;-117.718;2022-07-23T01:55:38;14.60;;;6.77;;
16524;SDS011;8375;33.594;-117.718;2022-07-23T01:58:07;8.90;;;5.57;;
16524;SDS011;8375;33.594;-117.718;2022-07-23T02:00:35;13.80;;;6.50;;
16524;SDS011;8375;33.594;-117.718;2022-07-23T02:03:04;12.87;;;6.47;;
16524;SDS011;8375;33.594;-117.718;2022-07-23T02:05:33;11.77;;;5.90;;
16524;SDS011;8375;33.594;-117.718;2022-07-23T02:08:02;12.73;;;5.83;;
16524;SDS011;8375;33.594;-117.718;2022-07-23T02:10:31;9.73;;;5.97;;
16524;SDS011;8375;33.594;-117.718;2022-07-23T02:13:02;13.07;;;6.47;;
16524;SDS011;8375;33.594;-117.718;2022-07-23T02:15:30;11.53;;;6.83;;
16524;SDS011;8375;33.594;-117.718;2022-07-23T02:18:00;11.90;;;6.20;;
16524;SDS011;8375;33.594;-117.718;2022-07-23T02:20:28;14.10;;;6.80;;
16524;SDS011;8375;33.594;-117.718;2022-07-23T02:22:58;16.20;;;6.70;;
16524;SDS011;8375;33.594;-117.718;2022-07-23T02:25:26;12.87;;;6.17;;
16524;SDS011;8375;33.594;-117.718;2022-07-23T02:27:55;13.73;;;7.03;;
16524;SDS011;8375;33.594;-117.718;2022-07-23T02:30:26;9.87;;;6.03;;
16524;SDS011;8375;33.594;-117.718;2022-07-23T02:32:55;9.83;;;6.07;;
16524;SDS011;8375;33.594;-117.718;2022-07-23T02:35:24;12.47;;;5.73;;
16524;SDS011;8375;33.594;-117.718;2022-07-23T02:37:53;14.27;;;6.70;;
16524;SDS011;8375;33.594;-117.718;2022-07-23T02:40:22;13.20;;;6.43;;
16524;SDS011;8375;33.594;-117.718;2022-07-23T02:42:51;12.03;;;6.40;;
16524;SDS011;8375;33.594;-117.718;2022-07-23T02:45:20;14.10;;;6.87;;
16524;SDS011;8375;33.594;-117.718;2022-07-23T02:47:51;12.33;;;7.00;;
16524;SDS011;8375;33.594;-117.718;2022-07-23T02:50:20;16.27;;;7.37;;
16524;SDS011;8375;33.594;-117.718;2022-07-23T02:52:48;14.93;;;7.17;;
16524;SDS011;8375;33.594;-117.718;2022-07-23T02:55:17;11.80;;;6.83;;
16524;SDS011;8375;33.594;-117.718;2022-07-23T02:57:46;14.03;;;6.83;;
16524;SDS011;8375;33.594;-117.718;2022-07-23T03:00:16;9.40;;;6.20;;
16524;SDS011;8375;33.594;-117.718;2022-07-23T03:02:44;14.30;;;7.03;;
16524;SDS011;8375;33.594;-117.718;2022-07-23T03:05:15;13.40;;;6.77;;
16524;SDS011;8375;33.594;-117.718;2022-07-23T03:07:44;13.17;;;6.33;;
16524;SDS011;8375;33.594;-117.718;2022-07-23T03:10:13;13.57;;;6.77;;
16524;SDS011;8375;33.594;-117.718;2022-07-23T03:12:43;13.00;;;6.47;;
16524;SDS011;8375;33.594;-117.718;2022-07-23T03:15:11;13.43;;;6.13;;
16524;SDS011;8375;33.594;-117.718;2022-07-23T03:17:40;11.83;;;6.30;;
16524;SDS011;8375;33.594;-117.718;2022-07-23T03:20:09;12.73;;;6.13;;
16524;SDS011;8375;33.594;-117.718;2022-07-23T03:22:41;13.17;;;6.90;;
16524;SDS011;8375;33.594;-117.718;2022-07-23T03:25:12;12.53;;;6.73;;
16524;SDS011;8375;33.594;-117.718;2022-07-23T03:27:43;13.80;;;7.13;;
16524;SDS011;8375;33.594;-117.718;2022-07-23T03:30:12;13.80;;;7.27;;
16524;SDS011;8375;33.594;-117.718;2022-07-23T03:32:41;11.57;;;7.67;;
16524;SDS011;8375;33.594;-117.718;2022-07-23T03:35:10;13.47;;;6.87;;
16524;SDS011;8375;33.594;-117.718;2022-07-23T03:37:40;12.33;;;7.17;;
16524;SDS011;8375;33.594;-117.718;2022-07-23T03:40:09;11.07;;;6.50;;
16524;SDS011;8375;33.594;-117.718;2022-07-23T03:42:38;12.10;;;7.77;;
16524;SDS011;8375;33.594;-117.718;2022-07-23T03:45:08;17.53;;;7.83;;
16524;SDS011;8375;33.594;-117.718;2022-07-23T03:47:37;13.33;;;7.00;;
16524;SDS011;8375;33.594;-117.718;2022-07-23T03:50:06;14.27;;;7.20;;
16524;SDS011;8375;33.594;-117.718;2022-07-23T03:52:35;12.03;;;6.83;;
16524;SDS011;8375;33.594;-117.718;2022-07-23T03:55:06;16.90;;;7.50;;
16524;SDS011;8375;33.594;-117.718;2022-07-23T03:57:35;14.17;;;6.80;;
16524;SDS011;8375;33.594;-117.718;2022-07-23T04:00:05;12.03;;;7.03;;
16524;SDS011;8375;33.594;-117.718;2022-07-23T04:02:35;16.93;;;7.47;;
16524;SDS011;8375;33.594;-117.718;2022-07-23T04:05:04;14.40;;;7.33;;
16524;SDS011;8375;33.594;-117.718;2022-07-23T04:07:33;15.40;;;7.03;;
16524;SDS011;8375;33.594;-117.718;2022-07-23T04:10:02;14.03;;;6.70;;
16524;SDS011;8375;33.594;-117.718;2022-07-23T04:12:33;15.77;;;7.53;;
16524;SDS011;8375;33.594;-117.718;2022-07-23T04:15:02;12.60;;;7.43;;
16524;SDS011;8375;33.594;-117.718;2022-07-23T04:17:31;13.17;;;7.00;;
16524;SDS011;8375;33.594;-117.718;2022-07-23T04:20:00;15.60;;;7.70;;
16524;SDS011;8375;33.594;-117.718;2022-07-23T04:22:28;14.03;;;8.13;;
16524;SDS011;8375;33.594;-117.718;2022-07-23T04:24:57;13.57;;;7.23;;
16524;SDS011;8375;33.594;-117.718;2022-07-23T04:27:25;10.40;;;6.80;;
16524;SDS011;8375;33.594;-117.718;2022-07-23T04:29:56;14.47;;;7.77;;
16524;SDS011;8375;33.594;-117.718;2022-07-23T04:32:25;11.93;;;7.50;;
16524;SDS011;8375;33.594;-117.718;2022-07-23T04:34:53;14.00;;;7.37;;
16524;SDS011;8375;33.594;-117.718;2022-07-23T04:37:22;16.27;;;7.50;;
16524;SDS011;8375;33.594;-117.718;2022-07-23T04:39:51;12.53;;;7.57;;
16524;SDS011;8375;33.594;-117.718;2022-07-23T04:42:23;21.17;;;8.67;;
16524;SDS011;8375;33.594;-117.718;2022-07-23T04:44:52;13.03;;;8.43;;
16524;SDS011;8375;33.594;-117.718;2022-07-23T04:47:23;15.50;;;8.17;;
16524;SDS011;8375;33.594;-117.718;2022-07-23T04:49:52;14.27;;;8.13;;
16524;SDS011;8375;33.594;-117.718;2022-07-23T04:52:22;14.10;;;7.77;;
16524;SDS011;8375;33.594;-117.718;2022-07-23T04:54:54;13.97;;;7.93;;
16524;SDS011;8375;33.594;-117.718;2022-07-23T04:57:24;18.33;;;8.80;;
16524;SDS011;8375;33.594;-117.718;2022-07-23T04:59:54;18.93;;;9.20;;
16524;SDS011;8375;33.594;-117.718;2022-07-23T05:02:26;17.17;;;9.57;;
16524;SDS011;8375;33.594;-117.718;2022-07-23T05:04:55;15.77;;;9.03;;
16524;SDS011;8375;33.594;-117.718;2022-07-23T05:07:23;13.60;;;8.60;;
16524;SDS011;8375;33.594;-117.718;2022-07-23T05:09:54;17.67;;;9.57;;
16524;SDS011;8375;33.594;-117.718;2022-07-23T05:12:23;14.33;;;8.27;;
16524;SDS011;8375;33.594;-117.718;2022-07-23T05:14:52;16.03;;;9.20;;
16524;SDS011;8375;33.594;-117.718;2022-07-23T05:17:25;15.40;;;9.57;;
16524;SDS011;8375;33.594;-117.718;2022-07-23T05:19:54;17.83;;;10.03;;
16524;SDS011;8375;33.594;-117.718;2022-07-23T05:22:22;18.70;;;9.63;;
16524;SDS011;8375;33.594;-117.718;2022-07-23T05:24:51;19.80;;;9.70;;
16524;SDS011;8375;33.594;-117.718;2022-07-23T05:27:20;16.40;;;9.70;;
16524;SDS011;8375;33.594;-117.718;2022-07-23T05:29:49;15.53;;;10.27;;
16524;SDS011;8375;33.594;-117.718;2022-07-23T05:32:17;15.57;;;10.53;;
16524;SDS011;8375;33.594;-117.718;2022-07-23T05:34:48;17.03;;;9.73;;
16524;SDS011;8375;33.594;-117.718;2022-07-23T05:37:17;15.07;;;10.40;;
16524;SDS011;8375;33.594;-117.718;2022-07-23T05:39:46;19.33;;;10.17;;
16524;SDS011;8375;33.594;-117.718;2022-07-23T05:42:14;19.20;;;10.27;;
16524;SDS011;8375;33.594;-117.718;2022-07-23T05:44:45;14.53;;;10.33;;
16524;SDS011;8375;33.594;-117.718;2022-07-23T05:47:16;16.13;;;10.13;;
16524;SDS011;8375;33.594;-117.718;2022-07-23T05:49:46;16.70;;;9.90;;
16524;SDS011;8375;33.594;-117.718;2022-07-23T05:52:17;14.40;;;9.47;;
16524;SDS011;8375;33.594;-117.718;2022-07-23T05:54:50;16.60;;;10.77;;
16524;SDS011;8375;33.594;-117.718;2022-07-23T05:57:18;17.90;;;9.77;;
16524;SDS011;8375;33.594;-117.718;2022-07-23T05:59:48;19.10;;;10.67;;
16524;SDS011;8375;33.594;-117.718;2022-07-23T06:02:20;17.90;;;10.33;;
16524;SDS011;8375;33.594;-117.718;2022-07-23T06:04:50;17.17;;;10.70;;
16524;SDS011;8375;33.594;-117.718;2022-07-23T06:07:19;14.67;;;8.60;;
16524;SDS011;8375;33.594;-117.718;2022-07-23T06:09:48;19.17;;;9.97;;
16524;SDS011;8375;33.594;-117.718;2022-07-23T06:12:18;19.17;;;9.67;;
16524;SDS011;8375;33.594;-117.718;2022-07-23T06:14:47;16.10;;;9.57;;
16524;SDS011;8375;33.594;-117.718;2022-07-23T06:17:17;16.30;;;10.03;;
16524;SDS011;8375;33.594;-117.718;2022-07-23T06:19:46;15.77;;;8.90;;
16524;SDS011;8375;33.594;-117.718;2022-07-23T06:22:16;17.77;;;10.23;;
16524;SDS011;8375;33.594;-117.718;2022-07-23T06:24:47;17.03;;;9.93;;
16524;SDS011;8375;33.594;-117.718;2022-07-23T06:27:18;15.77;;;9.17;;
16524;SDS011;8375;33.594;-117.718;2022-07-23T06:29:48;15.30;;;9.13;;
16524;SDS011;8375;33.594;-117.718;2022-07-23T06:32:18;20.60;;;9.63;;
16524;SDS011;8375;33.594;-117.718;2022-07-23T06:34:47;15.43;;;9.67;;
16524;SDS011;8375;33.594;-117.718;2022-07-23T06:37:19;18.83;;;10.27;;
16524;SDS011;8375;33.594;-117.718;2022-07-23T06:39:48;16.47;;;9.53;;
16524;SDS011;8375;33.594;-117.718;2022-07-23T06:42:17;17.57;;;9.60;;
16524;SDS011;8375;33.594;-117.718;2022-07-23T06:44:46;18.13;;;9.70;;
16524;SDS011;8375;33.594;-117.718;2022-07-23T06:47:14;15.90;;;9.37;;
16524;SDS011;8375;33.594;-117.718;2022-07-23T06:49:44;20.63;;;9.83;;
16524;SDS011;8375;33.594;-117.718;2022-07-23T06:52:15;20.33;;;9.47;;
16524;SDS011;8375;33.594;-117.718;2022-07-23T06:54:45;19.30;;;9.73;;
16524;SDS011;8375;33.594;-117.718;2022-07-23T06:57:14;16.17;;;9.17;;
16524;SDS011;8375;33.594;-117.718;2022-07-23T06:59:43;16.90;;;9.33;;
16524;SDS011;8375;33.594;-117.718;2022-07-23T07:02:12;16.67;;;9.47;;
16524;SDS011;8375;33.594;-117.718;2022-07-23T07:04:41;15.30;;;9.13;;
16524;SDS011;8375;33.594;-117.718;2022-07-23T07:07:10;18.10;;;10.10;;
16524;SDS011;8375;33.594;-117.718;2022-07-23T07:09:39;15.67;;;9.27;;
16524;SDS011;8375;33.594;-117.718;2022-07-23T07:12:10;16.53;;;9.47;;
16524;SDS011;8375;33.594;-117.718;2022-07-23T07:14:53;19.00;;;9.77;;
16524;SDS011;8375;33.594;-117.718;2022-07-23T07:17:23;17.63;;;9.73;;
16524;SDS011;8375;33.594;-117.718;2022-07-23T07:19:52;16.20;;;9.47;;
16524;SDS011;8375;33.594;-117.718;2022-07-23T07:22:21;20.83;;;10.03;;
16524;SDS011;8375;33.594;-117.718;2022-07-23T07:24:50;14.40;;;9.60;;
16524;SDS011;8375;33.594;-117.718;2022-07-23T07:27:22;17.13;;;9.50;;
16524;SDS011;8375;33.594;-117.718;2022-07-23T07:29:50;15.93;;;9.70;;
16524;SDS011;8375;33.594;-117.718;2022-07-23T07:32:19;17.17;;;10.23;;
16524;SDS011;8375;33.594;-117.718;2022-07-23T07:34:47;14.30;;;9.93;;
16524;SDS011;8375;33.594;-117.718;2022-07-23T07:37:16;20.23;;;10.50;;
16524;SDS011;8375;33.594;-117.718;2022-07-23T07:39:44;16.90;;;9.83;;
16524;SDS011;8375;33.594;-117.718;2022-07-23T07:42:14;16.67;;;10.07;;
16524;SDS011;8375;33.594;-117.718;2022-07-23T07:44:44;14.33;;;9.60;;
16524;SDS011;8375;33.594;-117.718;2022-07-23T07:47:12;15.60;;;9.17;;
16524;SDS011;8375;33.594;-117.718;2022-07-23T07:49:41;16.30;;;9.77;;
16524;SDS011;8375;33.594;-117.718;2022-07-23T07:52:10;17.13;;;9.53;;
16524;SDS011;8375;33.594;-117.718;2022-07-23T07:54:39;23.90;;;10.73;;
16524;SDS011;8375;33.594;-117.718;2022-07-23T07:57:08;16.23;;;10.17;;
16524;SDS011;8375;33.594;-117.718;2022-07-23T07:59:37;19.03;;;10.10;;
16524;SDS011;8375;33.594;-117.718;2022-07-23T08:02:07;17.27;;;9.37;;
16524;SDS011;8375;33.594;-117.718;2022-07-23T08:04:36;18.73;;;9.93;;
16524;SDS011;8375;33.594;-117.718;2022-07-23T08:07:04;17.50;;;9.50;;
16524;SDS011;8375;33.594;-117.718;2022-07-23T08:09:33;20.87;;;10.27;;
16524;SDS011;8375;33.594;-117.718;2022-07-23T08:12:01;17.37;;;8.87;;
16524;SDS011;8375;33.594;-117.718;2022-07-23T08:14:30;21.23;;;10.10;;
16524;SDS011;8375;33.594;-117.718;2022-07-23T08:16:59;23.10;;;10.40;;
16524;SDS011;8375;33.594;-117.718;2022-07-23T08:19:29;21.23;;;9.93;;
16524;SDS011;8375;33.594;-117.718;2022-07-23T08:21:58;19.67;;;9.97;;
16524;SDS011;8375;33.594;-117.718;2022-07-23T08:24:26;21.00;;;10.37;;
16524;SDS011;8375;33.594;-117.718;2022-07-23T08:26:55;18.07;;;8.97;;
16524;SDS011;8375;33.594;-117.718;2022-07-23T08:29:24;17.73;;;8.93;;
16524;SDS011;8375;33.594;-117.718;2022-07-23T08:31:52;19.23;;;9.17;;
16524;SDS011;8375;33.594;-117.718;2022-07-23T08:34:21;19.20;;;9.50;;
16524;SDS011;8375;33.594;-117.718;2022-07-23T08:36:51;17.63;;;9.90;;
16524;SDS011;8375;33.594;-117.718;2022-07-23T08:39:20;19.90;;;9.50;;
16524;SDS011;8375;33.594;-117.718;2022-07-23T08:41:48;18.73;;;10.07;;
16524;SDS011;8375;33.594;-117.718;2022-07-23T08:44:17;16.37;;;8.80;;
16524;SDS011;8375;33.594;-117.718;2022-07-23T08:46:46;16.97;;;9.37;;
16524;SDS011;8375;33.594;-117.718;2022-07-23T08:49:15;19.70;;;9.23;;
16524;SDS011;8375;33.594;-117.718;2022-07-23T08:51:44;14.07;;;9.10;;
16524;SDS011;8375;33.594;-117.718;2022-07-23T08:54:15;21.30;;;10.50;;
16524;SDS011;8375;33.594;-117.718;2022-07-23T08:56:44;18.37;;;9.17;;
16524;SDS011;8375;33.594;-117.718;2022-07-23T08:59:13;17.00;;;9.97;;
16524;SDS011;8375;33.594;-117.718;2022-07-23T09:01:42;20.17;;;9.57;;
16524;SDS011;8375;33.594;-117.718;2022-07-23T09:04:11;21.17;;;10.37;;
16524;SDS011;8375;33.594;-117.718;2022-07-23T09:06:39;16.10;;;9.70;;
16524;SDS011;8375;33.594;-117.718;2022-07-23T09:09:18;18.90;;;9.60;;
16524;SDS011;8375;33.594;-117.718;2022-07-23T09:11:47;16.67;;;8.70;;
16524;SDS011;8375;33.594;-117.718;2022-07-23T09:14:38;16.70;;;9.97;;
16524;SDS011;8375;33.594;-117.718;2022-07-23T09:17:08;16.33;;;9.60;;
16524;SDS011;8375;33.594;-117.718;2022-07-23T09:19:38;21.67;;;10.20;;
16524;SDS011;8375;33.594;-117.718;2022-07-23T09:22:19;18.50;;;10.17;;
16524;SDS011;8375;33.594;-117.718;2022-07-23T09:25:07;14.67;;;10.67;;
16524;SDS011;8375;33.594;-117.718;2022-07-23T09:30:32;20.50;;;11.43;;
16524;SDS011;8375;33.594;-117.718;2022-07-23T09:33:05;15.73;;;10.00;;
16524;SDS011;8375;33.594;-117.718;2022-07-23T09:35:45;15.70;;;10.20;;
16524;SDS011;8375;33.594;-117.718;2022-07-23T09:38:14;18.73;;;9.50;;
16524;SDS011;8375;33.594;-117.718;2022-07-23T09:40:45;23.43;;;10.27;;
16524;SDS011;8375;33.594;-117.718;2022-07-23T09:43:25;18.40;;;9.97;;
16524;SDS011;8375;33.594;-117.718;2022-07-23T09:45:59;19.17;;;9.93;;
16524;SDS011;8375;33.594;-117.718;2022-07-23T09:48:45;13.83;;;9.47;;
16524;SDS011;8375;33.594;-117.718;2022-07-23T09:51:14;21.80;;;10.67;;
16524;SDS011;8375;33.594;-117.718;2022-07-23T09:53:44;19.80;;;10.00;;
16524;SDS011;8375;33.594;-117.718;2022-07-23T09:56:14;18.57;;;10.40;;
16524;SDS011;8375;33.594;-117.718;2022-07-23T09:58:44;19.10;;;10.27;;
16524;SDS011;8375;33.594;-117.718;2022-07-23T10:01:17;21.10;;;10.43;;
16524;SDS011;8375;33.594;-117.718;2022-07-23T10:03:47;19.77;;;10.53;;
16524;SDS011;8375;33.594;-117.718;2022-07-23T10:06:16;21.67;;;10.50;;
16524;SDS011;8375;33.594;-117.718;2022-07-23T10:08:44;17.80;;;10.27;;
16524;SDS011;8375;33.594;-117.718;2022-07-23T10:11:19;14.43;;;10.13;;
16524;SDS011;8375;33.594;-117.718;2022-07-23T10:13:48;20.03;;;11.47;;
16524;SDS011;8375;33.594;-117.718;2022-07-23T10:16:20;19.97;;;10.37;;
16524;SDS011;8375;33.594;-117.718;2022-07-23T10:18:49;18.73;;;10.23;;
16524;SDS011;8375;33.594;-117.718;2022-07-23T10:21:19;15.30;;;10.17;;
16524;SDS011;8375;33.594;-117.718;2022-07-23T10:23:58;18.07;;;9.53;;
16524;SDS011;8375;33.594;-117.718;2022-07-23T10:26:41;14.40;;;9.43;;
16524;SDS011;8375;33.594;-117.718;2022-07-23T10:29:30;15.27;;;10.20;;
16524;SDS011;8375;33.594;-117.718;2022-07-23T10:32:14;23.20;;;11.30;;
16524;SDS011;8375;33.594;-117.718;2022-07-23T10:34:55;16.63;;;10.23;;
16524;SDS011;8375;33.594;-117.718;2022-07-23T10:37:32;21.23;;;10.53;;
16524;SDS011;8375;33.594;-117.718;2022-07-23T10:40:10;18.57;;;10.57;;
16524;SDS011;8375;33.594;-117.718;2022-07-23T10:42:44;14.37;;;9.47;;
16524;SDS011;8375;33.594;-117.718;2022-07-23T10:45:23;15.53;;;9.60;;
16524;SDS011;8375;33.594;-117.718;2022-07-23T10:47:54;16.37;;;9.53;;
16524;SDS011;8375;33.594;-117.718;2022-07-23T10:50:24;18.00;;;9.90;;
16524;SDS011;8375;33.594;-117.718;2022-07-23T10:53:12;18.17;;;10.23;;
16524;SDS011;8375;33.594;-117.718;2022-07-23T10:55:44;17.73;;;10.33;;
16524;SDS011;8375;33.594;-117.718;2022-07-23T10:58:19;19.00;;;10.17;;
16524;SDS011;8375;33.594;-117.718;2022-07-23T11:00:50;18.87;;;9.57;;
16524;SDS011;8375;33.594;-117.718;2022-07-23T11:03:28;23.57;;;11.00;;
16524;SDS011;8375;33.594;-117.718;2022-07-23T11:06:02;21.80;;;10.77;;
16524;SDS011;8375;33.594;-117.718;2022-07-23T11:08:32;17.77;;;9.97;;
16524;SDS011;8375;33.594;-117.718;2022-07-23T11:11:10;20.27;;;10.80;;
16524;SDS011;8375;33.594;-117.718;2022-07-23T11:13:44;21.00;;;9.73;;
16524;SDS011;8375;33.594;-117.718;2022-07-23T11:16:15;15.93;;;10.50;;
16524;SDS011;8375;33.594;-117.718;2022-07-23T11:18:58;21.90;;;10.50;;
16524;SDS011;8375;33.594;-117.718;2022-07-23T11:21:46;16.73;;;9.37;;
16524;SDS011;8375;33.594;-117.718;2022-07-23T11:24:22;14.77;;;9.57;;
16524;SDS011;8375;33.594;-117.718;2022-07-23T11:26:58;17.23;;;10.50;;
16524;SDS011;8375;33.594;-117.718;2022-07-23T11:29:46;16.07;;;10.23;;
16524;SDS011;8375;33.594;-117.718;2022-07-23T11:32:23;16.20;;;10.33;;
16524;SDS011;8375;33.594;-117.718;2022-07-23T11:35:18;16.57;;;10.20;;
16524;SDS011;8375;33.594;-117.718;2022-07-23T11:37:52;17.40;;;10.90;;
16524;SDS011;8375;33.594;-117.718;2022-07-23T11:40:24;21.40;;;10.30;;
16524;SDS011;8375;33.594;-117.718;2022-07-23T11:42:55;16.70;;;10.53;;
16524;SDS011;8375;33.594;-117.718;2022-07-23T11:45:33;19.87;;;10.53;;
16524;SDS011;8375;33.594;-117.718;2022-07-23T11:48:04;17.67;;;9.83;;
16524;SDS011;8375;33.594;-117.718;2022-07-23T11:50:34;20.30;;;10.30;;
16524;SDS011;8375;33.594;-117.718;2022-07-23T11:53:03;19.40;;;10.90;;
16524;SDS011;8375;33.594;-117.718;2022-07-23T11:55:31;17.87;;;10.63;;
16524;SDS011;8375;33.594;-117.718;2022-07-23T11:58:00;25.20;;;10.67;;
16524;SDS011;8375;33.594;-117.718;2022-07-23T12:00:31;15.17;;;10.13;;
16524;SDS011;8375;33.594;-117.718;2022-07-23T12:03:00;22.27;;;10.70;;
16524;SDS011;8375;33.594;-117.718;2022-07-23T12:05:32;23.30;;;10.27;;
16524;SDS011;8375;33.594;-117.718;2022-07-23T12:08:05;16.63;;;9.37;;
16524;SDS011;8375;33.594;-117.718;2022-07-23T12:10:35;19.23;;;9.63;;
16524;SDS011;8375;33.594;-117.718;2022-07-23T12:13:04;20.07;;;10.13;;
16524;SDS011;8375;33.594;-117.718;2022-07-23T12:15:38;17.73;;;10.43;;
16524;SDS011;8375;33.594;-117.718;2022-07-23T12:18:08;18.40;;;9.77;;
16524;SDS011;8375;33.594;-117.718;2022-07-23T12:20:49;18.50;;;10.13;;
16524;SDS011;8375;33.594;-117.718;2022-07-23T12:23:20;20.57;;;10.07;;
16524;SDS011;8375;33.594;-117.718;2022-07-23T12:25:49;15.63;;;9.83;;
16524;SDS011;8375;33.594;-117.718;2022-07-23T12:28:19;17.40;;;9.60;;
16524;SDS011;8375;33.594;-117.718;2022-07-23T12:30:51;20.67;;;10.27;;
16524;SDS011;8375;33.594;-117.718;2022-07-23T12:33:22;16.87;;;10.30;;
16524;SDS011;8375;33.594;-117.718;2022-07-23T12:35:53;15.53;;;9.90;;
16524;SDS011;8375;33.594;-117.718;2022-07-23T12:38:23;17.40;;;10.23;;
16524;SDS011;8375;33.594;-117.718;2022-07-23T12:40:52;21.10;;;10.67;;
16524;SDS011;8375;33.594;-117.718;2022-07-23T12:43:23;18.10;;;10.50;;
16524;SDS011;8375;33.594;-117.718;2022-07-23T12:45:54;19.03;;;10.40;;
16524;SDS011;8375;33.594;-117.718;2022-07-23T12:48:25;21.63;;;10.70;;
16524;SDS011;8375;33.594;-117.718;2022-07-23T12:50:55;18.33;;;10.60;;
16524;SDS011;8375;33.594;-117.718;2022-07-23T12:53:27;20.80;;;10.90;;
16524;SDS011;8375;33.594;-117.718;2022-07-23T12:55:58;20.13;;;10.20;;
16524;SDS011;8375;33.594;-117.718;2022-07-23T12:58:39;13.97;;;10.37;;
16524;SDS011;8375;33.594;-117.718;2022-07-23T13:01:11;19.50;;;9.40;;
16524;SDS011;8375;33.594;-117.718;2022-07-23T13:03:55;14.03;;;9.67;;
16524;SDS011;8375;33.594;-117.718;2022-07-23T13:06:29;18.97;;;10.13;;
16524;SDS011;8375;33.594;-117.718;2022-07-23T13:08:58;16.17;;;9.33;;
16524;SDS011;8375;33.594;-117.718;2022-07-23T13:11:28;20.07;;;9.83;;
16524;SDS011;8375;33.594;-117.718;2022-07-23T13:13:57;19.23;;;9.87;;
16524;SDS011;8375;33.594;-117.718;2022-07-23T13:16:27;17.30;;;10.00;;
16524;SDS011;8375;33.594;-117.718;2022-07-23T13:18:56;13.83;;;8.77;;
16524;SDS011;8375;33.594;-117.718;2022-07-23T13:21:26;17.23;;;8.90;;
16524;SDS011;8375;33.594;-117.718;2022-07-23T13:23:55;20.43;;;10.37;;
16524;SDS011;8375;33.594;-117.718;2022-07-23T13:26:24;21.70;;;11.70;;
16524;SDS011;8375;33.594;-117.718;2022-07-23T13:28:53;21.40;;;9.97;;
16524;SDS011;8375;33.594;-117.718;2022-07-23T13:31:22;16.60;;;10.00;;
16524;SDS011;8375;33.594;-117.718;2022-07-23T13:33:52;19.57;;;9.90;;
16524;SDS011;8375;33.594;-117.718;2022-07-23T13:36:21;14.23;;;9.50;;
16524;SDS011;8375;33.594;-117.718;2022-07-23T13:38:49;17.07;;;9.70;;
16524;SDS011;8375;33.594;-117.718;2022-07-23T13:41:18;17.67;;;9.53;;
16524;SDS011;8375;33.594;-117.718;2022-07-23T13:43:46;19.20;;;9.87;;
16524;SDS011;8375;33.594;-117.718;2022-07-23T13:46:15;22.17;;;10.47;;
16524;SDS011;8375;33.594;-117.718;2022-07-23T13:48:43;17.47;;;10.27;;
16524;SDS011;8375;33.594;-117.718;2022-07-23T13:51:14;20.23;;;10.23;;
16524;SDS011;8375;33.594;-117.718;2022-07-23T13:53:43;14.10;;;9.80;;
16524;SDS011;8375;33.594;-117.718;2022-07-23T13:56:13;15.37;;;9.23;;
16524;SDS011;8375;33.594;-117.718;2022-07-23T13:58:41;19.87;;;9.53;;
16524;SDS011;8375;33.594;-117.718;2022-07-23T14:01:10;14.47;;;9.10;;
16524;SDS011;8375;33.594;-117.718;2022-07-23T14:03:38;17.83;;;9.70;;
16524;SDS011;8375;33.594;-117.718;2022-07-23T14:06:07;17.03;;;9.83;;
16524;SDS011;8375;33.594;-117.718;2022-07-23T14:08:37;17.53;;;10.13;;
16524;SDS011;8375;33.594;-117.718;2022-07-23T14:11:06;21.30;;;10.77;;
16524;SDS011;8375;33.594;-117.718;2022-07-23T14:13:34;19.43;;;9.83;;
16524;SDS011;8375;33.594;-117.718;2022-07-23T14:16:03;17.37;;;10.00;;
16524;SDS011;8375;33.594;-117.718;2022-07-23T14:18:32;13.27;;;9.77;;
16524;SDS011;8375;33.594;-117.718;2022-07-23T14:21:02;18.20;;;10.63;;
16524;SDS011;8375;33.594;-117.718;2022-07-23T14:23:31;16.63;;;10.57;;
16524;SDS011;8375;33.594;-117.718;2022-07-23T14:26:01;15.13;;;10.07;;
16524;SDS011;8375;33.594;-117.718;2022-07-23T14:28:32;17.63;;;9.87;;